Flight Track Log - Related Links

Times and Time Zones

All times are in EST time to prevent confusion due to time zone crossing. See the AFL150 flight status page for this flight to view local times or setup timezone preferences in your user account.

Time Position Orientation Groundspeed Altitude Reporting Facility
EST Latitude Longitude Course Direction KTS MPH feet Rate Location/Type
Mon 08:44:53 PM 25.3442 -81.9622 201° Southwest 391 450 31,900  Level Miami Center
Mon 08:45:53 PM 25.2467 -82.0019 200° South 391 450 30,900 -1,000 Descending Miami Center
Mon 08:46:53 PM 25.1492 -82.0414 200° South 378 435 29,900 -950 Descending Miami Center
Mon 08:47:53 PM 25.0600 -82.0833 203° Southwest 373 429 29,000 -800 Descending Miami Center
Mon 08:48:53 PM 24.9628 -82.1206 199° South 373 429 28,300 -533 Descending Miami Center
Mon 08:53:53 PM 24.4942 -82.3150 198° South 363 418 25,800 -500 Descending Miami Center
Mon 08:54:53 PM 24.3989 -82.3494 198° South 356 410 25,300 -500 Descending Miami Center
Mon 08:55:53 PM 24.3097 -82.3911 203° Southwest 356 410 24,800 -650 Descending Miami Center
Mon 08:56:53 PM 24.2081 -82.4344 201° Southwest 356 410 24,000 -850 Descending Miami Center
Mon 08:57:00 PM 24.3284 -82.3759 201° Southwest  Level FlightAware Approximate
Mon 08:57:53 PM 24.1189 -82.4739 202° Southwest 356 410 23,100  Level Miami Center
Mon 08:58:00 PM 24.2508 -82.4092 201° Southwest  Level FlightAware Approximate
Mon 08:58:53 PM 24.0297 -82.5083 199° South 351 404 22,500  Level Miami Center
Mon 08:59:00 PM 24.1720 -82.4390 198° South  Level FlightAware Approximate
Mon 08:59:54 PM 23.9392 -82.5317 193° South 351 404 21,000  Level Miami Center
Mon 09:01:00 PM 23.8160 -82.4972 166° South  Level FlightAware Approximate
Mon 09:08:00 PM 23.0124 -82.4000 180° South  Level FlightAware Approximate
Mon 09:09:00 PM 22.9891 -82.4091 180° South  Level Estimated
Mon 09:10:00 PM 22.9891 -82.4091 180° South  Level Estimated
Mon 09:11:00 PM 22.9891 -82.4091 180° South  Level Estimated
Mon 09:12:00 PM 22.9891 -82.4091 180° South  Level Estimated
Mon 09:13:00 PM 22.9891 -82.4091 180° South  Level Estimated
Mon 09:14:00 PM 22.9891 -82.4091 180° South  Level Estimated
Mon 09:15:00 PM 22.9891 -82.4091 180° South  Level Estimated
Mon 09:16:00 PM 22.9891 -82.4091 180° South  Level Estimated
Mon 09:17:00 PM 22.9891 -82.4091 180° South  Level Estimated
Mon 09:18:00 PM 22.9891 -82.4091 180° South  Level Estimated
Mon 09:19:00 PM 22.9891 -82.4091 180° South  Level Estimated
Mon 09:20:00 PM 22.9891 -82.4091 180° South  Level Estimated
Mon 09:21:00 PM 22.9891 -82.4091 180° South  Level Estimated
Mon 09:22:00 PM 22.9891 -82.4091 180° South  Level Estimated
Mon 09:23:00 PM 22.9891 -82.4091 180° South  Level Estimated
Mon 09:24:00 PM 22.9891 -82.4091 180° South  Level Estimated
Mon 09:25:00 PM 22.9891 -82.4091 180° South  Level Estimated
Mon 09:26:00 PM 22.9891 -82.4091 180° South  Level Estimated
Mon 09:27:00 PM 22.9891 -82.4091 180° South  Level Estimated
Mon 09:28:00 PM 22.9891 -82.4091 180° South  Level Estimated

Login

Don't have an account? Register now (free) for customized features, flight alerts, and more!